createdAt,value
2018-05-03T00:00:59.696Z,21.10
2018-05-03T00:03:27.662Z,21.00
2018-05-03T00:05:55.528Z,20.90
2018-05-03T00:08:23.398Z,20.70
2018-05-03T00:10:51.361Z,20.60
2018-05-03T00:13:19.227Z,20.40
2018-05-03T00:15:47.094Z,20.30
2018-05-03T00:18:15.038Z,20.30
2018-05-03T00:20:43.031Z,20.20
2018-05-03T00:23:11.106Z,20.20
2018-05-03T00:25:38.969Z,20.10
2018-05-03T00:28:07.552Z,20.00
2018-05-03T00:30:35.417Z,20.00
2018-05-03T00:33:04.173Z,19.90
2018-05-03T00:35:32.071Z,19.90
2018-05-03T00:37:59.937Z,19.90
2018-05-03T00:40:27.804Z,19.90
2018-05-03T00:42:55.670Z,19.80
2018-05-03T00:45:23.535Z,19.80
2018-05-03T00:47:51.503Z,19.90
2018-05-03T00:50:19.472Z,19.90
2018-05-03T00:52:47.348Z,19.80
2018-05-03T00:55:15.207Z,20.00
2018-05-03T00:57:43.070Z,20.00
2018-05-03T01:00:11.043Z,19.90
2018-05-03T01:02:38.907Z,19.70
2018-05-03T01:05:07.590Z,19.70
2018-05-03T01:07:35.463Z,19.70
2018-05-03T01:10:03.322Z,19.80
2018-05-03T01:12:32.007Z,19.80
2018-05-03T01:14:59.874Z,19.90
2018-05-03T01:17:27.744Z,19.80
2018-05-03T01:19:55.606Z,19.80
2018-05-03T01:22:23.475Z,19.90
2018-05-03T01:24:51.443Z,19.80
2018-05-03T01:27:19.408Z,19.80
2018-05-03T01:29:47.280Z,19.90
2018-05-03T01:32:15.143Z,19.90
2018-05-03T01:34:43.112Z,20.00
2018-05-03T01:37:10.978Z,19.90
2018-05-03T01:39:38.910Z,19.80
2018-05-03T01:42:06.827Z,19.70
2018-05-03T01:44:34.780Z,19.80
2018-05-03T01:47:02.748Z,19.80
2018-05-03T01:49:30.615Z,19.60
2018-05-03T01:51:58.479Z,19.70
2018-05-03T01:54:26.351Z,19.70
2018-05-03T01:56:54.213Z,19.60
2018-05-03T01:59:22.077Z,19.50
2018-05-03T02:01:49.947Z,19.30
2018-05-03T02:04:17.814Z,19.10
2018-05-03T02:06:45.677Z,19.00
2018-05-03T02:09:14.363Z,18.90
2018-05-03T02:11:42.230Z,18.90
2018-05-03T02:14:10.131Z,18.90
2018-05-03T02:16:38.780Z,18.80
2018-05-03T02:19:06.649Z,18.70
2018-05-03T02:21:34.514Z,18.80
2018-05-03T02:24:02.355Z,18.70
2018-05-03T02:26:30.201Z,18.80
2018-05-03T02:28:58.110Z,18.70
2018-05-03T02:31:26.079Z,18.60
2018-05-03T02:33:53.946Z,18.60
2018-05-03T02:36:21.914Z,18.70
2018-05-03T02:38:49.884Z,18.70
2018-05-03T02:41:17.750Z,18.80
2018-05-03T02:43:45.728Z,18.90
2018-05-03T02:46:13.686Z,18.70
2018-05-03T02:48:41.554Z,18.80
2018-05-03T02:51:09.417Z,18.90
2018-05-03T02:53:37.287Z,18.90
2018-05-03T02:56:06.793Z,18.90
2018-05-03T02:58:46.535Z,18.90
2018-05-03T03:01:32.119Z,18.80
2018-05-03T03:04:29.889Z,18.90
2018-05-03T03:07:15.462Z,19.10
2018-05-03T03:10:09.851Z,19.00
2018-05-03T03:16:07.638Z,18.90
2018-05-03T03:18:53.116Z,19.10
2018-05-03T03:21:38.595Z,19.00
2018-05-03T03:24:33.905Z,19.10
2018-05-03T03:27:19.592Z,19.00
2018-05-03T03:33:26.387Z,19.10
2018-05-03T03:36:06.135Z,19.10
2018-05-03T03:38:45.774Z,19.20
2018-05-03T03:41:25.517Z,19.30
2018-05-03T03:44:05.262Z,19.50
2018-05-03T03:46:33.140Z,19.40
2018-05-03T03:49:00.994Z,19.40
2018-05-03T03:51:28.860Z,19.70
2018-05-03T03:53:56.831Z,19.70
2018-05-03T03:56:24.695Z,19.60
2018-05-03T03:58:52.562Z,19.60
2018-05-03T04:01:20.426Z,19.70
2018-05-03T04:03:48.397Z,19.60
2018-05-03T04:06:16.268Z,19.70
2018-05-03T04:08:44.133Z,19.60
2018-05-03T04:11:12.100Z,19.50
2018-05-03T04:13:39.961Z,19.70
2018-05-03T04:16:07.795Z,19.80
2018-05-03T04:18:47.695Z,19.70
2018-05-03T04:21:27.421Z,19.70
2018-05-03T04:24:09.012Z,19.80
2018-05-03T04:26:36.978Z,19.80
2018-05-03T04:29:04.908Z,19.90
2018-05-03T04:31:32.814Z,19.90
2018-05-03T04:34:00.884Z,20.00
2018-05-03T04:36:28.753Z,20.00
2018-05-03T04:38:56.616Z,20.10
2018-05-03T04:41:24.696Z,20.20
2018-05-03T04:43:52.552Z,20.30
2018-05-03T04:46:20.419Z,20.40
2018-05-03T04:48:48.287Z,20.50
2018-05-03T04:51:16.252Z,20.50
2018-05-03T04:53:44.178Z,20.60
2018-05-03T04:56:12.906Z,20.80
2018-05-03T04:58:53.144Z,20.80
2018-05-03T05:01:46.777Z,20.80
2018-05-03T05:04:15.417Z,20.60
2018-05-03T05:06:43.283Z,20.60
2018-05-03T05:09:11.149Z,20.60
2018-05-03T05:11:39.119Z,20.70
2018-05-03T05:14:07.089Z,20.60
2018-05-03T05:16:35.218Z,20.50
2018-05-03T05:19:02.998Z,20.50
2018-05-03T05:21:30.889Z,20.60
2018-05-03T05:23:58.757Z,20.60
2018-05-03T05:26:26.637Z,20.80
2018-05-03T05:28:54.399Z,20.80
2018-05-03T05:31:22.149Z,20.70
2018-05-03T05:33:50.018Z,20.60
2018-05-03T05:36:18.128Z,20.50
2018-05-03T05:38:46.866Z,20.70
2018-05-03T05:41:14.636Z,20.70
2018-05-03T05:43:42.504Z,20.60
2018-05-03T05:46:10.368Z,20.60
2018-05-03T05:48:38.235Z,20.60
2018-05-03T05:51:06.300Z,20.50
2018-05-03T05:53:34.172Z,20.60
2018-05-03T05:56:02.144Z,20.80
2018-05-03T05:58:30.109Z,20.80
2018-05-03T06:00:57.986Z,20.70
2018-05-03T06:03:25.949Z,20.70
2018-05-03T06:05:53.816Z,20.80
2018-05-03T06:08:21.676Z,20.70
2018-05-03T06:10:49.547Z,20.70
2018-05-03T06:13:17.416Z,20.90
2018-05-03T06:15:45.378Z,21.00
2018-05-03T06:18:13.213Z,20.90
2018-05-03T06:20:41.113Z,20.70
2018-05-03T06:23:09.077Z,20.50
2018-05-03T06:25:36.944Z,20.60
2018-05-03T06:28:04.914Z,20.70
2018-05-03T06:30:32.905Z,20.40
2018-05-03T06:33:00.956Z,20.40
2018-05-03T06:35:28.823Z,20.30
2018-05-03T06:37:56.900Z,20.20
2018-05-03T06:40:24.754Z,20.20
2018-05-03T06:42:52.814Z,20.20
2018-05-03T06:45:20.793Z,20.10
2018-05-03T06:47:48.663Z,19.90
2018-05-03T06:50:16.731Z,20.00
2018-05-03T06:52:44.701Z,20.10
2018-05-03T06:55:12.671Z,19.80
2018-05-03T06:57:40.537Z,19.80
2018-05-03T07:00:08.509Z,19.60
2018-05-03T07:02:36.477Z,19.30
2018-05-03T07:05:04.752Z,19.20
2018-05-03T07:07:32.730Z,19.20
2018-05-03T07:10:00.737Z,18.80
2018-05-03T07:12:28.669Z,18.50
2018-05-03T07:14:56.526Z,18.40
2018-05-03T07:17:24.388Z,18.10
2018-05-03T07:19:53.032Z,18.00
2018-05-03T07:22:21.051Z,18.00
2018-05-03T07:24:50.543Z,18.00
2018-05-03T07:27:18.523Z,18.00
2018-05-03T07:29:46.385Z,18.00
2018-05-03T07:32:14.559Z,18.00
2018-05-03T07:34:42.423Z,17.90
2018-05-03T07:37:10.494Z,17.90
2018-05-03T07:39:39.444Z,17.90
2018-05-03T07:42:07.463Z,17.80
2018-05-03T07:44:35.323Z,17.90
2018-05-03T07:47:03.184Z,18.00
2018-05-03T07:49:31.049Z,18.00
2018-05-03T07:51:58.917Z,18.20
2018-05-03T07:54:26.783Z,18.30
2018-05-03T07:56:54.753Z,18.50
2018-05-03T07:59:22.624Z,18.60
2018-05-03T08:01:51.424Z,18.70
2018-05-03T08:04:19.473Z,18.80
2018-05-03T08:06:47.342Z,19.00
2018-05-03T08:09:15.308Z,18.90
2018-05-03T08:11:43.278Z,18.90
2018-05-03T08:14:11.348Z,18.80
2018-05-03T08:16:39.424Z,18.80
2018-05-03T08:19:07.390Z,18.90
2018-05-03T08:21:35.355Z,18.90
2018-05-03T08:24:03.405Z,19.00
2018-05-03T08:26:31.293Z,19.10
2018-05-03T08:28:59.158Z,18.90
2018-05-03T08:31:27.029Z,18.80
2018-05-03T08:33:54.919Z,18.70
2018-05-03T08:36:23.535Z,18.70
2018-05-03T08:38:52.262Z,18.90
2018-05-03T08:41:20.135Z,18.90
2018-05-03T08:43:48.098Z,18.90
2018-05-03T08:46:16.785Z,18.80
2018-05-03T08:48:44.650Z,18.80
2018-05-03T08:51:12.480Z,18.90
2018-05-03T08:53:40.594Z,19.10
2018-05-03T08:56:09.271Z,19.30
2018-05-03T08:58:37.200Z,19.30
2018-05-03T09:01:05.211Z,19.30
2018-05-03T09:03:33.030Z,19.30
2018-05-03T09:06:00.939Z,19.10
2018-05-03T09:08:28.908Z,19.20
2018-05-03T09:10:56.777Z,19.10
2018-05-03T09:13:24.640Z,19.10
2018-05-03T09:15:52.571Z,19.10
2018-05-03T09:18:20.346Z,19.10
2018-05-03T09:20:48.240Z,19.20
2018-05-03T09:23:16.207Z,19.00
2018-05-03T09:25:44.384Z,19.00
2018-05-03T09:28:12.351Z,19.00
2018-05-03T09:30:40.328Z,18.90
2018-05-03T09:33:08.391Z,18.80
2018-05-03T09:35:36.259Z,18.90
2018-05-03T09:38:04.119Z,18.90
2018-05-03T09:40:32.092Z,19.00
2018-05-03T09:43:00.018Z,19.10
2018-05-03T09:45:28.028Z,19.20
2018-05-03T09:47:55.994Z,19.40
2018-05-03T09:50:23.861Z,19.40
2018-05-03T09:52:51.682Z,19.50
2018-05-03T09:55:19.697Z,19.50
2018-05-03T09:57:47.561Z,19.60
2018-05-03T10:00:15.429Z,19.50
2018-05-03T10:02:43.397Z,19.40
2018-05-03T10:05:11.222Z,19.10
2018-05-03T10:07:39.130Z,19.00
2018-05-03T10:10:06.994Z,19.00
2018-05-03T10:12:34.861Z,18.90
2018-05-03T10:15:02.934Z,19.10
2018-05-03T10:17:30.901Z,19.20
2018-05-03T10:19:58.873Z,19.40
2018-05-03T10:22:26.735Z,19.30
2018-05-03T10:24:54.600Z,19.30
2018-05-03T10:27:22.466Z,19.30
2018-05-03T10:29:50.343Z,19.50
2018-05-03T10:32:18.300Z,19.40
2018-05-03T10:34:46.268Z,19.40
2018-05-03T10:37:14.140Z,19.40
2018-05-03T10:39:42.001Z,19.50
2018-05-03T10:42:09.942Z,19.60
2018-05-03T10:44:37.837Z,19.90
2018-05-03T10:47:05.811Z,20.00
2018-05-03T10:49:33.673Z,20.20
2018-05-03T10:52:01.539Z,20.30
2018-05-03T10:54:29.408Z,20.40
2018-05-03T10:56:57.280Z,20.70
2018-05-03T10:59:25.137Z,21.00
2018-05-03T11:01:53.103Z,21.30
2018-05-03T11:04:21.032Z,21.80
2018-05-03T11:06:48.927Z,21.70
2018-05-03T11:09:16.803Z,22.00
2018-05-03T11:11:44.628Z,22.10
2018-05-03T11:14:12.652Z,22.20
2018-05-03T11:16:40.679Z,22.20
2018-05-03T11:19:08.539Z,21.80
2018-05-03T11:21:36.444Z,22.00
2018-05-03T11:24:04.237Z,22.10
2018-05-03T11:26:32.890Z,22.50
2018-05-03T11:29:00.861Z,22.50
2018-05-03T11:31:28.814Z,22.50
2018-05-03T11:33:56.695Z,22.30
2018-05-03T11:36:24.635Z,21.70
2018-05-03T11:38:52.535Z,21.90
2018-05-03T11:41:20.395Z,22.00
2018-05-03T11:43:48.272Z,22.40
2018-05-03T11:46:16.093Z,22.00
2018-05-03T11:48:44.054Z,22.10
2018-05-03T11:51:12.080Z,22.40
2018-05-03T11:53:40.851Z,22.30
2018-05-03T11:56:08.717Z,22.30
2018-05-03T11:58:36.604Z,22.50
2018-05-03T12:01:05.174Z,22.90
2018-05-03T12:03:33.245Z,22.90
2018-05-03T12:06:01.233Z,22.80
2018-05-03T12:08:29.890Z,22.20
2018-05-03T12:10:57.861Z,22.20
2018-05-03T12:13:25.827Z,22.30
2018-05-03T12:15:53.693Z,21.90
2018-05-03T12:18:21.665Z,22.50
2018-05-03T12:20:49.528Z,22.80
2018-05-03T12:23:17.398Z,22.20
2018-05-03T12:25:45.262Z,22.30
2018-05-03T12:28:13.082Z,22.20
2018-05-03T12:30:40.993Z,22.30
2018-05-03T12:33:08.860Z,21.90
2018-05-03T12:35:36.726Z,21.90
2018-05-03T12:38:04.590Z,22.10
2018-05-03T12:40:32.459Z,22.10
2018-05-03T12:43:00.434Z,22.40
2018-05-03T12:45:28.306Z,21.90
2018-05-03T12:47:56.272Z,21.50
2018-05-03T12:50:24.230Z,21.60
2018-05-03T12:52:52.096Z,21.90
2018-05-03T12:55:19.965Z,22.20
2018-05-03T12:57:47.836Z,22.40
2018-05-03T13:00:15.796Z,22.20
2018-05-03T13:02:43.619Z,22.30
2018-05-03T13:05:11.516Z,22.00
2018-05-03T13:07:39.504Z,22.10
2018-05-03T13:10:07.473Z,22.20
2018-05-03T13:12:35.349Z,21.90
2018-05-03T13:15:04.016Z,21.60
2018-05-03T13:17:31.894Z,21.60
2018-05-03T13:19:59.855Z,21.80
2018-05-03T13:22:27.922Z,21.90
2018-05-03T13:24:55.764Z,21.80
2018-05-03T13:27:23.653Z,21.60
2018-05-03T13:29:51.552Z,21.60
2018-05-03T13:32:20.310Z,21.40
2018-05-03T13:34:48.253Z,21.30
2018-05-03T13:37:16.142Z,21.30
2018-05-03T13:39:44.042Z,21.20
2018-05-03T13:42:12.694Z,21.70
2018-05-03T13:44:40.667Z,21.70
2018-05-03T13:47:08.633Z,21.30
2018-05-03T13:49:36.516Z,21.60
2018-05-03T13:52:04.446Z,21.40
2018-05-03T13:54:32.332Z,21.40
2018-05-03T13:57:00.219Z,21.60
2018-05-03T13:59:28.270Z,21.70
2018-05-03T14:01:56.340Z,21.20
2018-05-03T14:04:24.516Z,21.00
2018-05-03T14:06:52.420Z,20.90
2018-05-03T14:09:20.332Z,20.70
2018-05-03T14:11:48.317Z,20.90
2018-05-03T14:14:16.250Z,20.90
2018-05-03T14:16:44.255Z,20.60
2018-05-03T14:19:12.277Z,20.30
2018-05-03T14:21:40.395Z,20.50
2018-05-03T14:24:08.363Z,20.50
2018-05-03T14:26:36.235Z,20.30
2018-05-03T14:29:04.208Z,20.40
2018-05-03T14:31:32.049Z,20.70
2018-05-03T14:33:59.882Z,20.70
2018-05-03T14:36:27.814Z,20.70
2018-05-03T14:38:55.706Z,20.60
2018-05-03T14:41:24.396Z,20.40
2018-05-03T14:43:52.216Z,20.40
2018-05-03T14:46:20.102Z,20.40
2018-05-03T14:48:48.072Z,20.40
2018-05-03T14:51:16.018Z,20.40
2018-05-03T14:53:43.883Z,20.20
2018-05-03T14:56:11.913Z,20.20
2018-05-03T14:58:40.055Z,20.30
2018-05-03T15:01:08.852Z,20.30
2018-05-03T15:03:37.704Z,20.10
2018-05-03T15:06:05.571Z,20.20
2018-05-03T15:08:33.345Z,20.10
2018-05-03T15:11:01.202Z,20.10
2018-05-03T15:13:29.168Z,20.10
2018-05-03T15:15:57.116Z,20.20
2018-05-03T15:18:25.076Z,20.30
2018-05-03T15:20:53.074Z,19.90
2018-05-03T15:23:20.922Z,19.70
2018-05-03T15:25:48.811Z,19.70
2018-05-03T15:28:16.881Z,19.80
2018-05-03T15:30:44.741Z,20.10
2018-05-03T15:33:12.609Z,20.10
2018-05-03T15:35:40.577Z,20.10
2018-05-03T15:38:08.454Z,20.30
2018-05-03T15:40:36.451Z,20.20
2018-05-03T15:43:05.096Z,19.70
2018-05-03T15:45:32.975Z,19.70
2018-05-03T15:48:01.650Z,19.80
2018-05-03T15:50:29.518Z,19.80
2018-05-03T15:52:57.482Z,19.70
2018-05-03T15:55:25.457Z,19.70
2018-05-03T15:57:53.319Z,19.30
2018-05-03T16:00:21.290Z,19.30
2018-05-03T16:02:49.470Z,19.30
2018-05-03T16:05:17.530Z,19.30
2018-05-03T16:07:45.399Z,19.40
2018-05-03T16:10:13.472Z,19.10
2018-05-03T16:12:41.436Z,19.20
2018-05-03T16:15:09.306Z,19.10
2018-05-03T16:17:38.711Z,18.90
2018-05-03T16:20:06.676Z,18.90
2018-05-03T16:22:34.537Z,18.90
2018-05-03T16:25:02.407Z,19.00
2018-05-03T16:27:30.269Z,19.00
2018-05-03T16:29:58.313Z,18.90
2018-05-03T16:32:26.212Z,18.80
2018-05-03T16:34:54.038Z,18.90
2018-05-03T16:37:21.953Z,18.90
2018-05-03T16:39:49.862Z,18.80
2018-05-03T16:42:17.773Z,18.90
2018-05-03T16:44:45.747Z,18.90
2018-05-03T16:47:13.712Z,18.80
2018-05-03T16:49:41.679Z,18.70
2018-05-03T16:52:09.551Z,18.50
2018-05-03T16:54:37.471Z,18.50
2018-05-03T16:57:05.382Z,18.50
2018-05-03T16:59:33.247Z,18.50
2018-05-03T17:02:01.216Z,18.50
2018-05-03T17:04:29.159Z,18.50
2018-05-03T17:06:57.156Z,18.50
2018-05-03T17:09:25.017Z,18.60
2018-05-03T17:11:53.071Z,18.50
2018-05-03T17:14:20.957Z,18.60
2018-05-03T17:16:49.038Z,18.50
2018-05-03T17:19:18.439Z,18.40
2018-05-03T17:21:46.909Z,18.40
2018-05-03T17:24:14.881Z,18.50
2018-05-03T17:26:42.846Z,18.60
2018-05-03T17:29:10.732Z,18.50
2018-05-03T17:31:38.790Z,18.40
2018-05-03T17:34:06.758Z,18.40
2018-05-03T17:36:34.644Z,18.40
2018-05-03T17:39:03.677Z,18.30
2018-05-03T17:41:31.696Z,18.30
2018-05-03T17:43:59.548Z,18.30
2018-05-03T17:46:27.412Z,18.20
2018-05-03T17:48:55.280Z,18.20
2018-05-03T17:51:23.159Z,18.20
2018-05-03T17:53:51.338Z,18.30
2018-05-03T17:56:19.194Z,18.20
2018-05-03T17:58:47.804Z,18.20
2018-05-03T18:01:15.702Z,18.20
2018-05-03T18:03:43.567Z,18.30
2018-05-03T18:06:11.437Z,18.40
2018-05-03T18:08:39.404Z,18.20
2018-05-03T18:11:07.270Z,18.20
2018-05-03T18:13:35.325Z,18.20
2018-05-03T18:16:03.215Z,18.30
2018-05-03T18:18:31.031Z,18.30
2018-05-03T18:20:58.938Z,18.30
2018-05-03T18:23:26.898Z,18.40
2018-05-03T18:25:54.893Z,18.30
2018-05-03T18:28:22.741Z,18.20
2018-05-03T18:30:50.609Z,18.20
2018-05-03T18:33:18.546Z,18.00
2018-05-03T18:35:46.413Z,18.10
2018-05-03T18:38:14.312Z,18.10
2018-05-03T18:40:42.178Z,18.10
2018-05-03T18:43:10.037Z,18.00
2018-05-03T18:45:37.906Z,18.10
2018-05-03T18:48:05.738Z,18.10
2018-05-03T18:50:33.639Z,18.10
2018-05-03T18:53:01.478Z,18.10
2018-05-03T18:55:29.276Z,18.00
2018-05-03T18:57:57.141Z,18.00
2018-05-03T19:00:25.207Z,18.00
2018-05-03T19:02:53.069Z,18.10
2018-05-03T19:05:20.937Z,18.10
2018-05-03T19:07:48.802Z,18.00
2018-05-03T19:10:16.679Z,17.90
2018-05-03T19:12:44.643Z,17.90
2018-05-03T19:15:12.661Z,17.90
2018-05-03T19:17:40.578Z,17.90
2018-05-03T19:20:08.450Z,18.00
2018-05-03T19:22:36.316Z,18.10
2018-05-03T19:25:04.285Z,17.90
2018-05-03T19:27:32.143Z,17.90
2018-05-03T19:30:00.110Z,17.80
2018-05-03T19:32:27.894Z,17.90
2018-05-03T19:34:55.678Z,17.90
2018-05-03T19:37:24.218Z,17.80
2018-05-03T19:39:52.807Z,17.70
2018-05-03T19:42:20.724Z,17.70
2018-05-03T19:44:48.642Z,17.70
2018-05-03T19:47:16.606Z,17.60
2018-05-03T19:49:44.410Z,17.70
2018-05-03T19:52:13.156Z,17.70
2018-05-03T19:54:41.230Z,17.60
2018-05-03T19:57:09.458Z,17.50
2018-05-03T19:59:37.502Z,17.60
2018-05-03T20:02:06.781Z,17.50
2018-05-03T20:04:36.788Z,17.60
2018-05-03T20:07:04.961Z,17.60
2018-05-03T20:09:33.138Z,17.60
2018-05-03T20:12:01.209Z,17.60
2018-05-03T20:14:29.149Z,17.60
2018-05-03T20:16:57.216Z,17.60
2018-05-03T20:19:24.970Z,17.60
2018-05-03T20:21:52.778Z,17.60
2018-05-03T20:24:20.647Z,17.60
2018-05-03T20:26:48.608Z,17.60
2018-05-03T20:29:16.484Z,17.60
2018-05-03T20:31:44.352Z,17.60
2018-05-03T20:34:12.311Z,17.70
2018-05-03T20:36:40.277Z,17.90
2018-05-03T20:39:08.143Z,17.70
2018-05-03T20:41:35.965Z,17.60
2018-05-03T20:44:03.857Z,17.50
2018-05-03T20:46:31.844Z,17.50
2018-05-03T20:48:59.785Z,17.50
2018-05-03T20:51:27.695Z,17.40
2018-05-03T20:53:55.620Z,17.20
2018-05-03T20:56:23.511Z,17.00
2018-05-03T20:58:51.349Z,17.00
2018-05-03T21:01:19.249Z,16.80
2018-05-03T21:03:47.117Z,16.70
2018-05-03T21:06:14.951Z,16.50
2018-05-03T21:08:42.848Z,16.40
2018-05-03T21:11:10.721Z,16.40
2018-05-03T21:13:38.582Z,16.30
2018-05-03T21:16:06.447Z,16.40
2018-05-03T21:18:34.418Z,16.50
2018-05-03T21:21:02.388Z,16.40
2018-05-03T21:23:30.248Z,16.40
2018-05-03T21:25:58.115Z,16.30
2018-05-03T21:28:25.990Z,16.30
2018-05-03T21:30:53.849Z,16.40
2018-05-03T21:33:21.713Z,16.50
2018-05-03T21:35:49.582Z,16.50
2018-05-03T21:38:17.448Z,16.50
2018-05-03T21:40:45.316Z,16.60
2018-05-03T21:43:13.387Z,16.50
2018-05-03T21:45:42.171Z,16.60
2018-05-03T21:48:10.093Z,16.50
2018-05-03T21:50:38.005Z,16.50
2018-05-03T21:53:06.116Z,16.50
2018-05-03T21:55:34.873Z,16.40
2018-05-03T21:58:02.696Z,16.40
2018-05-03T22:00:30.595Z,16.50
2018-05-03T22:02:58.676Z,16.40
2018-05-03T22:05:26.534Z,16.30
2018-05-03T22:07:54.415Z,16.40
2018-05-03T22:10:23.095Z,16.30
2018-05-03T22:12:51.021Z,16.30
2018-05-03T22:15:18.927Z,16.40
2018-05-03T22:17:46.853Z,16.40
2018-05-03T22:20:14.867Z,16.40
2018-05-03T22:22:43.061Z,16.40
2018-05-03T22:25:11.719Z,16.30
2018-05-03T22:27:39.584Z,16.30
2018-05-03T22:30:07.552Z,16.40
2018-05-03T22:32:35.417Z,16.40
2018-05-03T22:35:03.400Z,16.40
2018-05-03T22:37:31.458Z,16.40
2018-05-03T22:39:59.427Z,16.20
2018-05-03T22:42:27.247Z,16.20
2018-05-03T22:44:55.164Z,16.20
2018-05-03T22:47:23.023Z,16.20
2018-05-03T22:49:51.007Z,16.20
2018-05-03T22:52:19.020Z,16.30
2018-05-03T22:54:47.058Z,16.30
2018-05-03T22:57:15.832Z,16.10
2018-05-03T22:59:43.795Z,16.10
2018-05-03T23:02:11.926Z,16.10
2018-05-03T23:04:40.044Z,16.10
2018-05-03T23:07:07.991Z,16.10
2018-05-03T23:09:35.880Z,16.10
2018-05-03T23:12:03.837Z,16.20
2018-05-03T23:14:31.904Z,16.10
2018-05-03T23:16:59.902Z,16.20
2018-05-03T23:19:28.791Z,16.30
2018-05-03T23:21:57.576Z,16.30
2018-05-03T23:24:26.554Z,16.20
2018-05-03T23:26:54.635Z,16.20
2018-05-03T23:29:22.685Z,16.30
2018-05-03T23:31:50.680Z,16.40
2018-05-03T23:34:19.442Z,16.40
2018-05-03T23:36:47.409Z,16.40
2018-05-03T23:39:15.384Z,16.50
2018-05-03T23:41:43.446Z,16.50
2018-05-03T23:44:11.423Z,16.50
2018-05-03T23:46:39.489Z,16.60
2018-05-03T23:49:07.328Z,16.70
2018-05-03T23:51:35.230Z,16.60
2018-05-03T23:54:03.201Z,16.70
2018-05-03T23:56:31.057Z,16.70
2018-05-03T23:58:58.936Z,16.90
